Huntington, IN

10:45 PM EDT on May 22, 2015 (GMT -0400)
North Huntington County | | Change Station
CLOSE
Current Station
Personal Weather Station
Location: Huntington, IN
Elevation: 817 ft
Nearby Weather Stations

Elev 817 ft 40.93 °N, 85.55 °W | Updated 24 seconds ago

Partly Cloudy
Partly Cloudy
56.1 °F
Feels Like 56.1 °F
N
0.0
Wind Variable Wind from NNW
Gusts 1.0 mph

Today
High -- | Low -- °F
--% Chance of Precip.
Yesterday
High -- | Low -- °F
Precip. -- in
6:18 AM 8:59 PM
Waxing Crescent, 26% visible
Pressure 30.28 in
Visibility 10.0 miles
Clouds Mostly Cloudy 24000 ft
Dew Point 40 °F
Humidity 55%
Rainfall 0.00 in
Snow Depth Not available.
UV 0 out of 12
Pollen 9.30 out of 12
Air Quality Not available.
Flu Activity Sporadic
METAR KFWA 230154Z 34005KT 10SM BKN240 15/04 A3028 RMK AO2 SLP252 T01500044

More Conditions Fewer Conditions

Pressure 30.28 in
Visibility 10.0 miles
Clouds Mostly Cloudy 24000 ft
Dew Point 40 °F
Humidity 55%
Rainfall 0.00 in
Snow Depth Not available.
UV 0 out of 12
Pollen 9.30 out of 12
Air Quality Not available.
Flu Activity Sporadic
METAR KFWA 230154Z 34005KT 10SM BKN240 15/04 A3028 RMK AO2 SLP252 T01500044

More Conditions Fewer Conditions

10-Day Weather Forecast

Almanac

Astronomy

May. 22, 2015 Rise Set
Actual Time
Civil Twilight
Nautical Twilight
Astronomical Twilight
Moon
Length of Visible Light
Length of Day
Tomorrow will be .
, % of the Moon is Illuminated

Today's Extremes

State Highs State Lows

Community

WunderPhotos

Upload Photos

1,823,371 photos uploaded!

WunderBlogs® & News

Nearby

Air Quality

  Air Quality AQ Index Pollutant
Not available.

Snow Depth

Station Depth Elevation

Earthquake Activity

City Distance Mag. Time & Date
Minimum magnitude displayed is 2.5.

Coastal Water Temperatures

Place Temperature

Stations

Nearby Weather Stations

Station Location Temp. Windchill Dew Point Humidity Wind Precip. Elev Updated Type